Weather History for Plattsmouth, NE

Change the Weather History Date:

Wednesday, October 9, 2013

  Actual Average (KOFF) Record (KOFF)
Temperature  
Mean Temperature 66 °F -  
Max Temperature 78 °F 67 °F 82 °F (2010)
Min Temperature 53 °F 45 °F 24 °F (2000)
Growing Degree Days 16 (Base 50)    
Moisture  
Dew Point 48 °F    
Average Humidity 59    
Maximum Humidity 80    
Minimum Humidity 34    
Precipitation  
Precipitation 0.00 in - - ()
Sea Level Pressure  
Sea Level Pressure 29.99 in    
Wind  
Wind Speed 12 mph (SSE)    
Max Wind Speed 18 mph    
Max Gust Speed 23 mph    
Visibility 10 miles    
Events      
Averages and records for this station are not official NWS values.
T = Trace of Precipitation, MM = Missing Value Source: NWS Daily Summary

Daily Weather History Graph

Daily Weather History Graph

Search for Another Location

Airport:

Trip Planner

Search our weather history database for the weather conditions in past years. The results will help you decide how hot, cold, wet, or windy it might be!

Date:

Astronomy

Oct. 09, 2013 Rise Set
Actual Time 7:28 AM CDT 6:52 PM CDT
Civil Twilight 7:01 AM CDT 7:19 PM CDT
Nautical Twilight 6:29 AM CDT 7:51 PM CDT
Astronomical Twilight 5:57 AM CDT 8:23 PM CDT
Moon 12:27 PM CDT (10/9) 10:25 PM CDT (10/9)
Length of Visible Light 12h 18m
Length of Day
11h 23m
Waxing Crescent, 25% of the Moon is Illuminated
Oct 9
Waxing Crescent
Oct 11
First Quarter
Oct 18
Full
Oct 26
Last Quarter
Nov 3
New

Hourly Weather History & Observations

Time (CDT) Temp. Dew Point Humidity Pressure Visibility Wind Dir Wind Speed Gust Speed Precip Events Conditions
12:15 AM 60.4 °F 45.9 °F 59% 29.98 in 10.0 mi SSE 11.5 mph 16.1 mph N/A   Clear
12:35 AM 59.5 °F 46.4 °F 62% 29.97 in 10.0 mi SSE 10.4 mph - N/A   Clear
12:55 AM 59.0 °F 46.4 °F 63% 29.98 in 10.0 mi SSE 11.5 mph 18.4 mph N/A   Clear
1:15 AM 58.1 °F 46.4 °F 65% 29.98 in 10.0 mi SSE 10.4 mph 16.1 mph N/A   Clear
1:35 AM 57.2 °F 46.6 °F 68% 29.99 in 10.0 mi SSE 10.4 mph 17.3 mph N/A   Clear
1:55 AM 56.7 °F 46.8 °F 69% 29.99 in 10.0 mi SSE 12.7 mph - N/A   Clear
2:15 AM 56.5 °F 46.8 °F 70% 29.99 in 10.0 mi SSE 11.5 mph 16.1 mph N/A   Clear
2:35 AM 56.3 °F 46.9 °F 71% 29.99 in 10.0 mi SSE 12.7 mph - N/A   Clear
2:55 AM 55.6 °F 46.9 °F 73% 29.99 in 10.0 mi SSE 11.5 mph 18.4 mph N/A   Clear
3:15 AM 55.4 °F 46.9 °F 73% 29.99 in 10.0 mi SSE 11.5 mph - N/A   Clear
3:35 AM 55.0 °F 46.9 °F 74% 29.98 in 10.0 mi SSE 12.7 mph - N/A   Clear
3:55 AM 55.0 °F 47.3 °F 75% 29.98 in 10.0 mi SSE 11.5 mph - N/A   Clear
4:15 AM 54.9 °F 47.3 °F 76% 29.98 in 10.0 mi SSE 13.8 mph 18.4 mph N/A   Clear
4:35 AM 55.0 °F 47.3 °F 75% 29.99 in 10.0 mi SSE 11.5 mph - N/A   Clear
4:55 AM 55.2 °F 47.3 °F 75% 29.99 in 10.0 mi SSE 12.7 mph - N/A   Clear
5:15 AM 55.4 °F 47.3 °F 74% 29.99 in 10.0 mi SSE 13.8 mph 17.3 mph N/A   Clear
5:35 AM 55.4 °F 46.9 °F 73% 29.99 in 10.0 mi SSE 11.5 mph 18.4 mph N/A   Clear
5:55 AM 55.0 °F 46.9 °F 74% 29.99 in 10.0 mi SSE 11.5 mph 18.4 mph N/A   Clear
6:15 AM 55.0 °F 46.9 °F 74% 30.00 in 10.0 mi SSE 11.5 mph 17.3 mph N/A   Clear
6:35 AM 54.3 °F 47.3 °F 77% 30.00 in 10.0 mi SE 10.4 mph - N/A   Clear
6:55 AM 54.5 °F 47.3 °F 77% 30.00 in 10.0 mi SSE 11.5 mph 16.1 mph N/A   Clear
7:15 AM 54.1 °F 47.3 °F 78% 29.99 in 10.0 mi SE 11.5 mph - N/A   Clear
7:35 AM 53.8 °F 47.7 °F 80% 30.00 in 10.0 mi SSE 9.2 mph - N/A   Clear
7:55 AM 54.0 °F 47.7 °F 79% 30.01 in 10.0 mi SSE 9.2 mph - N/A   Clear
8:15 AM 54.0 °F 47.8 °F 80% 30.01 in 10.0 mi SE 11.5 mph - N/A   Clear
8:35 AM 54.5 °F 48.4 °F 80% 30.01 in 10.0 mi SE 10.4 mph - N/A   Clear
8:55 AM 55.8 °F 48.6 °F 77% 30.02 in 10.0 mi SE 11.5 mph - N/A   Clear
9:15 AM 56.5 °F 48.6 °F 75% 30.02 in 10.0 mi SE 11.5 mph 18.4 mph N/A   Clear
9:35 AM 59.0 °F 49.1 °F 70% 30.02 in 10.0 mi SSE 11.5 mph 18.4 mph N/A   Clear
9:55 AM 61.0 °F 49.1 °F 65% 30.02 in 10.0 mi SSE 12.7 mph 18.4 mph N/A   Clear
10:15 AM 62.8 °F 49.3 °F 61% 30.02 in 10.0 mi SSE 9.2 mph 18.4 mph N/A   Clear
10:35 AM 64.8 °F 49.5 °F 58% 30.03 in 10.0 mi South 11.5 mph 20.7 mph N/A   Clear
10:55 AM 66.6 °F 49.5 °F 54% 30.02 in 10.0 mi SSE 15.0 mph 18.4 mph N/A   Clear
11:15 AM 68.0 °F 49.3 °F 51% 30.02 in 10.0 mi SSE 15.0 mph 21.9 mph N/A   Clear
11:35 AM 69.3 °F 49.5 °F 49% 30.02 in 10.0 mi SSE 16.1 mph 23.0 mph N/A   Clear
11:55 AM 70.7 °F 49.5 °F 47% 30.02 in 10.0 mi SSE 12.7 mph 23.0 mph N/A   Clear
12:15 PM 71.2 °F 50.2 °F 47% 30.02 in 7.0 mi SSE 13.8 mph 20.7 mph N/A   Clear
12:35 PM 72.1 °F 50.4 °F 46% 30.02 in 10.0 mi SE 10.4 mph 19.6 mph N/A   Clear
12:55 PM 73.4 °F 50.2 °F 44% 30.01 in 10.0 mi SSE 11.5 mph 17.3 mph N/A   Clear
1:15 PM 74.7 °F 49.8 °F 42% 30.01 in 5.0 mi SE 12.7 mph 18.4 mph N/A   Haze
1:35 PM 75.7 °F 49.6 °F 40% 30.00 in 10.0 mi SSE 11.5 mph 20.7 mph N/A   Clear
1:55 PM 75.7 °F 49.6 °F 40% 29.99 in 10.0 mi SE 11.5 mph 19.6 mph N/A   Clear
2:15 PM 76.5 °F 49.6 °F 39% 29.98 in 10.0 mi SE 16.1 mph 23.0 mph N/A   Clear
2:35 PM 77.2 °F 48.4 °F 36% 29.98 in 10.0 mi SE 18.4 mph 23.0 mph N/A   Clear
2:55 PM 77.5 °F 48.2 °F 35% 29.97 in 10.0 mi SE 12.7 mph 21.9 mph N/A   Clear
3:15 PM 78.1 °F 47.7 °F 34% 29.97 in 7.0 mi SSE 15.0 mph 21.9 mph N/A   Clear
3:55 PM 78.8 °F 48.2 °F 34% 29.96 in 7.0 mi SE 16.1 mph 20.7 mph N/A   Clear
4:15 PM 78.4 °F 47.5 °F 34% 29.96 in 10.0 mi SSE 12.7 mph 21.9 mph N/A   Clear
4:35 PM 78.1 °F 47.7 °F 34% 29.96 in 10.0 mi SSE 11.5 mph 21.9 mph N/A   Clear
4:55 PM 77.4 °F 47.5 °F 35% 29.96 in 10.0 mi SE 16.1 mph - N/A   Clear
5:15 PM 77.0 °F 48.4 °F 36% 29.96 in 7.0 mi SE 12.7 mph 20.7 mph N/A   Clear
5:35 PM 75.9 °F 49.1 °F 39% 29.96 in 10.0 mi SE 12.7 mph - N/A   Clear
5:55 PM 74.8 °F 48.7 °F 40% 29.95 in 7.0 mi SE 17.3 mph 21.9 mph N/A   Clear
6:15 PM 73.8 °F 48.7 °F 41% 29.94 in 7.0 mi SE 15.0 mph 20.7 mph N/A   Clear
6:55 PM 70.5 °F 48.7 °F 46% 29.96 in 7.0 mi SE 10.4 mph 16.1 mph N/A   Clear
7:15 PM 69.6 °F 48.2 °F 46% 29.97 in 10.0 mi SE 11.5 mph 16.1 mph N/A   Clear
7:35 PM 68.4 °F 48.2 °F 48% 29.98 in 10.0 mi SE 10.4 mph - N/A   Clear
7:55 PM 67.3 °F 48.4 °F 51% 29.98 in 10.0 mi SE 8.1 mph - N/A   Clear
8:15 PM 65.7 °F 48.7 °F 54% 29.98 in 10.0 mi SE 9.2 mph - N/A   Clear
8:35 PM 64.6 °F 48.7 °F 56% 29.98 in 10.0 mi SE 9.2 mph - N/A   Clear
8:55 PM 64.6 °F 48.6 °F 56% 29.98 in 10.0 mi SE 10.4 mph - N/A   Clear
9:15 PM 64.4 °F 48.6 °F 56% 29.98 in 10.0 mi SE 12.7 mph 16.1 mph N/A   Clear
9:35 PM 63.7 °F 48.7 °F 58% 29.99 in 10.0 mi SE 10.4 mph - N/A   Clear
9:55 PM 63.3 °F 49.1 °F 60% 29.99 in 10.0 mi SE 11.5 mph - N/A   Clear
10:15 PM 62.8 °F 48.7 °F 60% 30.00 in 10.0 mi SE 9.2 mph - N/A   Clear
10:35 PM 62.2 °F 49.1 °F 62% 30.00 in 10.0 mi SE 11.5 mph - N/A   Clear
10:55 PM 61.5 °F 49.1 °F 64% 30.00 in 10.0 mi SE 8.1 mph - N/A   Clear
11:15 PM 59.9 °F 48.9 °F 67% 30.01 in 10.0 mi SSE 8.1 mph - N/A   Clear
11:55 PM 60.3 °F 48.9 °F 66% 30.01 in 10.0 mi SE 9.2 mph - N/A   Clear